CheckWX is a tool to help pilots better visualize weather data.  It is not intended as a substitute for an official pre-flight weather briefing.

21:09:08 UTC

5T9 METAR
Maverick County Memorial International Airport
Eagle Pass, Texas, USA
Current

14 mins ago

K5T9 182055Z AUTO 09006G13KT 10SM CLR 18/M06 A3007 RMK A01
Observed
Feb-18 @ 20:55 UTC
Wind
  • 090° at 6 KTS
  • Gusting to 13 KTS
Visibility
10 SM
Flight Rules
VFR
Cloud Levels
  • Clear skies
Temperature
18°C / 64°F
Dewpoint
-6°C / 21°F
Humidity
19%
Altimeter
30.07" Hg
Pressure
1018.32 hPa
Previous

34 mins ago

K5T9 182035Z AUTO VRB06KT 10SM CLR 17/M06 A3008 RMK A01
Observed
Feb-18 @ 20:35 UTC
Wind
  • Variable at 6 KTS
Visibility
10 SM
Flight Rules
VFR
Cloud Levels
  • Clear skies
Temperature
17°C / 63°F
Dewpoint
-6°C / 21°F
Humidity
20%
Altimeter
30.08" Hg
Pressure
1018.62 hPa
Previous

54 mins ago

K5T9 182015Z AUTO 14008G13KT 10SM CLR 17/M06 A3009 RMK A01
Observed
Feb-18 @ 20:15 UTC
Wind
  • 140° at 8 KTS
  • Gusting to 13 KTS
Visibility
10 SM
Flight Rules
VFR
Cloud Levels
  • Clear skies
Temperature
17°C / 63°F
Dewpoint
-6°C / 21°F
Humidity
20%
Altimeter
30.09" Hg
Pressure
1018.92 hPa